sensor_id;sensor_type;location;lat;lon;timestamp;P1;durP1;ratioP1;P2;durP2;ratioP2
21581;SDS011;10952;50.836;4.348;2024-03-08T00:00:18;27.33;;;14.00;;
21581;SDS011;10952;50.836;4.348;2024-03-08T00:02:44;29.23;;;14.00;;
21581;SDS011;10952;50.836;4.348;2024-03-08T00:05:11;27.27;;;13.53;;
21581;SDS011;10952;50.836;4.348;2024-03-08T00:07:38;25.57;;;13.87;;
21581;SDS011;10952;50.836;4.348;2024-03-08T00:10:05;28.10;;;13.77;;
21581;SDS011;10952;50.836;4.348;2024-03-08T00:12:36;28.30;;;13.07;;
21581;SDS011;10952;50.836;4.348;2024-03-08T00:15:11;31.50;;;14.73;;
21581;SDS011;10952;50.836;4.348;2024-03-08T00:17:41;32.40;;;15.17;;
21581;SDS011;10952;50.836;4.348;2024-03-08T00:20:08;25.47;;;13.17;;
21581;SDS011;10952;50.836;4.348;2024-03-08T00:22:35;27.10;;;14.13;;
21581;SDS011;10952;50.836;4.348;2024-03-08T00:25:04;32.13;;;15.20;;
21581;SDS011;10952;50.836;4.348;2024-03-08T00:27:33;33.37;;;15.23;;
21581;SDS011;10952;50.836;4.348;2024-03-08T00:29:59;27.03;;;13.93;;
21581;SDS011;10952;50.836;4.348;2024-03-08T00:32:25;29.93;;;14.30;;
21581;SDS011;10952;50.836;4.348;2024-03-08T00:34:52;32.87;;;15.10;;
21581;SDS011;10952;50.836;4.348;2024-03-08T00:37:21;29.13;;;14.80;;
21581;SDS011;10952;50.836;4.348;2024-03-08T00:39:47;34.77;;;14.03;;
21581;SDS011;10952;50.836;4.348;2024-03-08T00:42:16;28.20;;;13.90;;
21581;SDS011;10952;50.836;4.348;2024-03-08T00:44:42;32.30;;;14.63;;
21581;SDS011;10952;50.836;4.348;2024-03-08T00:47:08;26.83;;;12.90;;
21581;SDS011;10952;50.836;4.348;2024-03-08T00:49:37;30.30;;;14.70;;
21581;SDS011;10952;50.836;4.348;2024-03-08T00:52:05;27.90;;;14.90;;
21581;SDS011;10952;50.836;4.348;2024-03-08T00:54:32;31.43;;;15.13;;
21581;SDS011;10952;50.836;4.348;2024-03-08T00:56:58;26.47;;;14.70;;
21581;SDS011;10952;50.836;4.348;2024-03-08T00:59:23;27.57;;;14.90;;
21581;SDS011;10952;50.836;4.348;2024-03-08T01:01:49;29.23;;;14.60;;
21581;SDS011;10952;50.836;4.348;2024-03-08T01:04:15;28.83;;;14.07;;
21581;SDS011;10952;50.836;4.348;2024-03-08T01:06:40;28.77;;;15.27;;
21581;SDS011;10952;50.836;4.348;2024-03-08T01:09:09;31.33;;;13.93;;
21581;SDS011;10952;50.836;4.348;2024-03-08T01:11:35;31.03;;;14.20;;
21581;SDS011;10952;50.836;4.348;2024-03-08T01:14:00;32.50;;;15.03;;
21581;SDS011;10952;50.836;4.348;2024-03-08T01:16:26;29.67;;;14.83;;
21581;SDS011;10952;50.836;4.348;2024-03-08T01:18:52;31.47;;;14.73;;
21581;SDS011;10952;50.836;4.348;2024-03-08T01:21:17;28.60;;;14.80;;
21581;SDS011;10952;50.836;4.348;2024-03-08T01:23:43;30.23;;;14.43;;
21581;SDS011;10952;50.836;4.348;2024-03-08T01:26:09;31.70;;;14.80;;
21581;SDS011;10952;50.836;4.348;2024-03-08T01:28:34;29.23;;;15.27;;
21581;SDS011;10952;50.836;4.348;2024-03-08T01:31:00;28.20;;;15.50;;
21581;SDS011;10952;50.836;4.348;2024-03-08T01:33:26;32.37;;;15.80;;
21581;SDS011;10952;50.836;4.348;2024-03-08T01:35:52;29.23;;;15.73;;
21581;SDS011;10952;50.836;4.348;2024-03-08T01:38:19;30.87;;;15.63;;
21581;SDS011;10952;50.836;4.348;2024-03-08T01:40:48;31.33;;;15.73;;
21581;SDS011;10952;50.836;4.348;2024-03-08T01:43:35;29.30;;;15.00;;
21581;SDS011;10952;50.836;4.348;2024-03-08T01:46:00;30.97;;;14.83;;
21581;SDS011;10952;50.836;4.348;2024-03-08T01:48:30;32.40;;;16.13;;
21581;SDS011;10952;50.836;4.348;2024-03-08T01:50:56;28.47;;;15.33;;
21581;SDS011;10952;50.836;4.348;2024-03-08T01:53:23;28.77;;;15.37;;
21581;SDS011;10952;50.836;4.348;2024-03-08T01:55:50;28.67;;;16.13;;
21581;SDS011;10952;50.836;4.348;2024-03-08T01:58:21;28.63;;;15.87;;
21581;SDS011;10952;50.836;4.348;2024-03-08T02:00:48;33.40;;;15.47;;
21581;SDS011;10952;50.836;4.348;2024-03-08T02:03:15;36.23;;;16.80;;
21581;SDS011;10952;50.836;4.348;2024-03-08T02:05:41;30.97;;;16.33;;
21581;SDS011;10952;50.836;4.348;2024-03-08T02:08:07;30.80;;;16.90;;
21581;SDS011;10952;50.836;4.348;2024-03-08T02:10:38;30.60;;;17.03;;
21581;SDS011;10952;50.836;4.348;2024-03-08T02:13:04;29.90;;;16.47;;
21581;SDS011;10952;50.836;4.348;2024-03-08T02:18:18;31.13;;;17.00;;
21581;SDS011;10952;50.836;4.348;2024-03-08T02:20:47;27.40;;;15.80;;
21581;SDS011;10952;50.836;4.348;2024-03-08T02:23:17;31.77;;;17.43;;
21581;SDS011;10952;50.836;4.348;2024-03-08T02:25:46;29.77;;;17.00;;
21581;SDS011;10952;50.836;4.348;2024-03-08T02:28:13;28.77;;;16.53;;
21581;SDS011;10952;50.836;4.348;2024-03-08T02:30:39;34.07;;;17.30;;
21581;SDS011;10952;50.836;4.348;2024-03-08T02:33:05;34.60;;;17.63;;
21581;SDS011;10952;50.836;4.348;2024-03-08T02:35:32;33.10;;;18.10;;
21581;SDS011;10952;50.836;4.348;2024-03-08T02:37:59;37.60;;;19.53;;
21581;SDS011;10952;50.836;4.348;2024-03-08T02:40:25;31.13;;;19.53;;
21581;SDS011;10952;50.836;4.348;2024-03-08T02:42:51;34.47;;;18.60;;
21581;SDS011;10952;50.836;4.348;2024-03-08T02:45:16;31.50;;;18.87;;
21581;SDS011;10952;50.836;4.348;2024-03-08T02:47:42;35.17;;;18.00;;
21581;SDS011;10952;50.836;4.348;2024-03-08T02:50:08;37.27;;;18.83;;
21581;SDS011;10952;50.836;4.348;2024-03-08T02:52:34;29.73;;;17.23;;
21581;SDS011;10952;50.836;4.348;2024-03-08T02:55:00;32.37;;;18.13;;
21581;SDS011;10952;50.836;4.348;2024-03-08T02:57:31;34.63;;;18.90;;
21581;SDS011;10952;50.836;4.348;2024-03-08T02:59:57;30.63;;;18.47;;
21581;SDS011;10952;50.836;4.348;2024-03-08T03:02:24;32.63;;;18.90;;
21581;SDS011;10952;50.836;4.348;2024-03-08T03:04:51;31.33;;;17.97;;
21581;SDS011;10952;50.836;4.348;2024-03-08T03:07:17;33.33;;;18.20;;
21581;SDS011;10952;50.836;4.348;2024-03-08T03:09:43;30.60;;;18.03;;
21581;SDS011;10952;50.836;4.348;2024-03-08T03:12:09;38.37;;;18.63;;
21581;SDS011;10952;50.836;4.348;2024-03-08T03:14:37;36.43;;;19.87;;
21581;SDS011;10952;50.836;4.348;2024-03-08T03:17:03;32.00;;;18.27;;
21581;SDS011;10952;50.836;4.348;2024-03-08T03:19:29;33.03;;;18.90;;
21581;SDS011;10952;50.836;4.348;2024-03-08T03:21:55;33.23;;;18.83;;
21581;SDS011;10952;50.836;4.348;2024-03-08T03:24:22;33.77;;;19.87;;
21581;SDS011;10952;50.836;4.348;2024-03-08T03:26:48;33.47;;;19.27;;
21581;SDS011;10952;50.836;4.348;2024-03-08T03:29:14;34.53;;;19.43;;
21581;SDS011;10952;50.836;4.348;2024-03-08T03:31:42;31.77;;;19.10;;
21581;SDS011;10952;50.836;4.348;2024-03-08T03:34:10;32.27;;;18.37;;
21581;SDS011;10952;50.836;4.348;2024-03-08T03:36:37;40.27;;;20.57;;
21581;SDS011;10952;50.836;4.348;2024-03-08T03:39:07;34.10;;;18.70;;
21581;SDS011;10952;50.836;4.348;2024-03-08T03:41:37;38.43;;;21.03;;
21581;SDS011;10952;50.836;4.348;2024-03-08T03:44:04;34.80;;;19.77;;
21581;SDS011;10952;50.836;4.348;2024-03-08T03:46:31;31.07;;;18.20;;
21581;SDS011;10952;50.836;4.348;2024-03-08T03:48:57;32.53;;;19.30;;
21581;SDS011;10952;50.836;4.348;2024-03-08T03:51:23;33.63;;;19.60;;
21581;SDS011;10952;50.836;4.348;2024-03-08T03:53:49;34.43;;;18.90;;
21581;SDS011;10952;50.836;4.348;2024-03-08T03:56:15;38.80;;;19.83;;
21581;SDS011;10952;50.836;4.348;2024-03-08T03:58:40;35.53;;;19.40;;
21581;SDS011;10952;50.836;4.348;2024-03-08T04:01:07;33.67;;;19.50;;
21581;SDS011;10952;50.836;4.348;2024-03-08T04:03:34;38.03;;;20.73;;
21581;SDS011;10952;50.836;4.348;2024-03-08T04:06:00;33.23;;;19.87;;
21581;SDS011;10952;50.836;4.348;2024-03-08T04:08:27;33.53;;;19.90;;
21581;SDS011;10952;50.836;4.348;2024-03-08T04:10:52;31.97;;;19.60;;
21581;SDS011;10952;50.836;4.348;2024-03-08T04:13:18;34.93;;;20.63;;
21581;SDS011;10952;50.836;4.348;2024-03-08T04:15:45;37.50;;;20.03;;
21581;SDS011;10952;50.836;4.348;2024-03-08T04:18:13;35.20;;;19.87;;
21581;SDS011;10952;50.836;4.348;2024-03-08T04:20:39;36.57;;;20.50;;
21581;SDS011;10952;50.836;4.348;2024-03-08T04:23:05;37.93;;;20.37;;
21581;SDS011;10952;50.836;4.348;2024-03-08T04:25:31;37.87;;;19.47;;
21581;SDS011;10952;50.836;4.348;2024-03-08T04:27:57;31.97;;;20.53;;
21581;SDS011;10952;50.836;4.348;2024-03-08T04:30:22;36.57;;;20.03;;
21581;SDS011;10952;50.836;4.348;2024-03-08T04:32:49;33.40;;;19.70;;
21581;SDS011;10952;50.836;4.348;2024-03-08T04:35:15;38.13;;;20.43;;
21581;SDS011;10952;50.836;4.348;2024-03-08T04:37:41;35.97;;;20.27;;
21581;SDS011;10952;50.836;4.348;2024-03-08T04:40:06;34.23;;;19.83;;
21581;SDS011;10952;50.836;4.348;2024-03-08T04:42:32;31.80;;;19.73;;
21581;SDS011;10952;50.836;4.348;2024-03-08T04:44:59;40.87;;;19.80;;
21581;SDS011;10952;50.836;4.348;2024-03-08T04:47:25;42.97;;;21.07;;
21581;SDS011;10952;50.836;4.348;2024-03-08T04:49:51;36.23;;;19.83;;
21581;SDS011;10952;50.836;4.348;2024-03-08T04:52:17;56.17;;;28.10;;
21581;SDS011;10952;50.836;4.348;2024-03-08T04:54:43;34.50;;;21.53;;
21581;SDS011;10952;50.836;4.348;2024-03-08T04:57:09;34.73;;;20.27;;
21581;SDS011;10952;50.836;4.348;2024-03-08T04:59:36;33.33;;;19.90;;
21581;SDS011;10952;50.836;4.348;2024-03-08T05:02:02;34.17;;;19.80;;
21581;SDS011;10952;50.836;4.348;2024-03-08T05:04:28;36.10;;;20.73;;
21581;SDS011;10952;50.836;4.348;2024-03-08T05:06:54;36.10;;;19.50;;
21581;SDS011;10952;50.836;4.348;2024-03-08T05:09:20;38.77;;;21.00;;
21581;SDS011;10952;50.836;4.348;2024-03-08T05:11:46;39.37;;;20.13;;
21581;SDS011;10952;50.836;4.348;2024-03-08T05:14:13;35.77;;;20.43;;
21581;SDS011;10952;50.836;4.348;2024-03-08T05:16:45;34.97;;;19.73;;
21581;SDS011;10952;50.836;4.348;2024-03-08T05:19:18;36.43;;;20.13;;
21581;SDS011;10952;50.836;4.348;2024-03-08T05:21:45;35.87;;;19.77;;
21581;SDS011;10952;50.836;4.348;2024-03-08T05:24:14;38.80;;;20.23;;
21581;SDS011;10952;50.836;4.348;2024-03-08T05:26:40;32.30;;;19.20;;
21581;SDS011;10952;50.836;4.348;2024-03-08T05:29:07;39.03;;;20.77;;
21581;SDS011;10952;50.836;4.348;2024-03-08T05:31:49;36.27;;;20.40;;
21581;SDS011;10952;50.836;4.348;2024-03-08T05:34:17;37.17;;;20.50;;
21581;SDS011;10952;50.836;4.348;2024-03-08T05:36:44;35.90;;;20.83;;
21581;SDS011;10952;50.836;4.348;2024-03-08T05:39:14;37.30;;;20.70;;
21581;SDS011;10952;50.836;4.348;2024-03-08T05:41:41;38.43;;;20.43;;
21581;SDS011;10952;50.836;4.348;2024-03-08T05:44:07;36.90;;;19.63;;
21581;SDS011;10952;50.836;4.348;2024-03-08T05:46:34;37.73;;;20.27;;
21581;SDS011;10952;50.836;4.348;2024-03-08T05:49:03;34.53;;;19.30;;
21581;SDS011;10952;50.836;4.348;2024-03-08T05:51:33;33.63;;;20.47;;
21581;SDS011;10952;50.836;4.348;2024-03-08T05:54:00;33.70;;;19.90;;
21581;SDS011;10952;50.836;4.348;2024-03-08T05:56:28;33.80;;;20.13;;
21581;SDS011;10952;50.836;4.348;2024-03-08T05:58:54;36.70;;;20.23;;
21581;SDS011;10952;50.836;4.348;2024-03-08T06:01:20;35.57;;;20.27;;
21581;SDS011;10952;50.836;4.348;2024-03-08T06:03:46;36.27;;;20.07;;
21581;SDS011;10952;50.836;4.348;2024-03-08T06:06:14;39.33;;;20.43;;
21581;SDS011;10952;50.836;4.348;2024-03-08T06:08:40;35.97;;;19.20;;
21581;SDS011;10952;50.836;4.348;2024-03-08T06:11:08;35.63;;;20.20;;
21581;SDS011;10952;50.836;4.348;2024-03-08T06:13:34;36.70;;;20.53;;
21581;SDS011;10952;50.836;4.348;2024-03-08T06:16:00;36.73;;;20.30;;
21581;SDS011;10952;50.836;4.348;2024-03-08T06:18:29;36.83;;;21.47;;
21581;SDS011;10952;50.836;4.348;2024-03-08T06:20:56;35.67;;;19.80;;
21581;SDS011;10952;50.836;4.348;2024-03-08T06:23:22;39.77;;;20.73;;
21581;SDS011;10952;50.836;4.348;2024-03-08T06:25:48;36.07;;;20.27;;
21581;SDS011;10952;50.836;4.348;2024-03-08T06:28:14;41.67;;;21.23;;
21581;SDS011;10952;50.836;4.348;2024-03-08T06:30:40;34.37;;;19.07;;
21581;SDS011;10952;50.836;4.348;2024-03-08T06:33:06;45.27;;;19.47;;
21581;SDS011;10952;50.836;4.348;2024-03-08T06:35:35;39.47;;;19.93;;
21581;SDS011;10952;50.836;4.348;2024-03-08T06:38:03;40.60;;;20.37;;
21581;SDS011;10952;50.836;4.348;2024-03-08T06:40:29;46.63;;;19.90;;
21581;SDS011;10952;50.836;4.348;2024-03-08T06:42:55;41.03;;;20.37;;
21581;SDS011;10952;50.836;4.348;2024-03-08T06:45:20;36.30;;;19.47;;
21581;SDS011;10952;50.836;4.348;2024-03-08T06:47:48;38.53;;;20.10;;
21581;SDS011;10952;50.836;4.348;2024-03-08T06:50:14;37.93;;;19.57;;
21581;SDS011;10952;50.836;4.348;2024-03-08T06:52:40;44.07;;;20.83;;
21581;SDS011;10952;50.836;4.348;2024-03-08T06:55:11;43.73;;;20.60;;
21581;SDS011;10952;50.836;4.348;2024-03-08T06:57:40;37.93;;;19.13;;
21581;SDS011;10952;50.836;4.348;2024-03-08T07:00:08;48.63;;;20.63;;
21581;SDS011;10952;50.836;4.348;2024-03-08T07:02:36;38.57;;;19.93;;
21581;SDS011;10952;50.836;4.348;2024-03-08T07:05:02;38.97;;;19.33;;
21581;SDS011;10952;50.836;4.348;2024-03-08T07:07:29;35.37;;;20.13;;
21581;SDS011;10952;50.836;4.348;2024-03-08T07:09:56;42.77;;;21.93;;
21581;SDS011;10952;50.836;4.348;2024-03-08T07:12:22;34.67;;;19.30;;
21581;SDS011;10952;50.836;4.348;2024-03-08T07:14:48;45.60;;;20.33;;
21581;SDS011;10952;50.836;4.348;2024-03-08T07:17:14;39.67;;;19.67;;
21581;SDS011;10952;50.836;4.348;2024-03-08T07:19:41;34.80;;;19.37;;
21581;SDS011;10952;50.836;4.348;2024-03-08T07:22:07;38.67;;;19.87;;
21581;SDS011;10952;50.836;4.348;2024-03-08T07:24:36;37.23;;;20.37;;
21581;SDS011;10952;50.836;4.348;2024-03-08T07:27:02;39.37;;;18.83;;
21581;SDS011;10952;50.836;4.348;2024-03-08T07:29:32;40.33;;;20.80;;
21581;SDS011;10952;50.836;4.348;2024-03-08T07:31:58;35.50;;;20.43;;
21581;SDS011;10952;50.836;4.348;2024-03-08T07:34:39;48.00;;;20.90;;
21581;SDS011;10952;50.836;4.348;2024-03-08T07:37:06;38.37;;;19.93;;
21581;SDS011;10952;50.836;4.348;2024-03-08T07:39:36;43.73;;;19.87;;
21581;SDS011;10952;50.836;4.348;2024-03-08T07:42:02;42.90;;;21.07;;
21581;SDS011;10952;50.836;4.348;2024-03-08T07:44:28;38.77;;;18.97;;
21581;SDS011;10952;50.836;4.348;2024-03-08T07:46:54;41.13;;;20.50;;
21581;SDS011;10952;50.836;4.348;2024-03-08T07:49:20;46.93;;;19.77;;
21581;SDS011;10952;50.836;4.348;2024-03-08T07:51:46;36.80;;;18.97;;
21581;SDS011;10952;50.836;4.348;2024-03-08T07:54:12;45.53;;;19.90;;
21581;SDS011;10952;50.836;4.348;2024-03-08T07:56:38;41.67;;;19.90;;
21581;SDS011;10952;50.836;4.348;2024-03-08T07:59:03;37.53;;;19.83;;
21581;SDS011;10952;50.836;4.348;2024-03-08T08:01:29;35.53;;;18.57;;
21581;SDS011;10952;50.836;4.348;2024-03-08T08:03:55;36.93;;;18.33;;
21581;SDS011;10952;50.836;4.348;2024-03-08T08:06:22;39.80;;;19.30;;
21581;SDS011;10952;50.836;4.348;2024-03-08T08:08:48;35.03;;;18.47;;
21581;SDS011;10952;50.836;4.348;2024-03-08T08:11:14;34.80;;;19.03;;
21581;SDS011;10952;50.836;4.348;2024-03-08T08:13:40;37.33;;;19.37;;
21581;SDS011;10952;50.836;4.348;2024-03-08T08:16:08;33.50;;;17.90;;
21581;SDS011;10952;50.836;4.348;2024-03-08T08:18:34;41.97;;;20.40;;
21581;SDS011;10952;50.836;4.348;2024-03-08T08:21:00;36.47;;;18.33;;
21581;SDS011;10952;50.836;4.348;2024-03-08T08:23:26;34.70;;;19.03;;
21581;SDS011;10952;50.836;4.348;2024-03-08T08:25:52;36.87;;;19.10;;
21581;SDS011;10952;50.836;4.348;2024-03-08T08:28:17;40.13;;;18.67;;
21581;SDS011;10952;50.836;4.348;2024-03-08T08:30:46;39.40;;;19.43;;
21581;SDS011;10952;50.836;4.348;2024-03-08T08:33:13;45.60;;;19.80;;
21581;SDS011;10952;50.836;4.348;2024-03-08T08:35:40;35.83;;;18.63;;
21581;SDS011;10952;50.836;4.348;2024-03-08T08:38:05;37.00;;;19.43;;
21581;SDS011;10952;50.836;4.348;2024-03-08T08:40:32;34.07;;;18.03;;
21581;SDS011;10952;50.836;4.348;2024-03-08T08:43:02;34.00;;;18.53;;
21581;SDS011;10952;50.836;4.348;2024-03-08T08:45:32;31.47;;;17.83;;
21581;SDS011;10952;50.836;4.348;2024-03-08T08:47:58;31.83;;;17.57;;
21581;SDS011;10952;50.836;4.348;2024-03-08T08:50:26;35.90;;;18.40;;
21581;SDS011;10952;50.836;4.348;2024-03-08T08:52:53;38.40;;;18.40;;
21581;SDS011;10952;50.836;4.348;2024-03-08T08:55:19;35.60;;;18.40;;
21581;SDS011;10952;50.836;4.348;2024-03-08T08:57:51;37.40;;;19.27;;
21581;SDS011;10952;50.836;4.348;2024-03-08T09:00:18;44.63;;;17.77;;
21581;SDS011;10952;50.836;4.348;2024-03-08T09:02:46;38.17;;;18.37;;
21581;SDS011;10952;50.836;4.348;2024-03-08T09:05:13;33.20;;;18.60;;
21581;SDS011;10952;50.836;4.348;2024-03-08T09:07:45;32.17;;;18.00;;
21581;SDS011;10952;50.836;4.348;2024-03-08T09:10:11;35.90;;;18.03;;
21581;SDS011;10952;50.836;4.348;2024-03-08T09:12:38;28.97;;;16.77;;
21581;SDS011;10952;50.836;4.348;2024-03-08T09:15:05;30.53;;;16.70;;
21581;SDS011;10952;50.836;4.348;2024-03-08T09:17:34;34.77;;;17.33;;
21581;SDS011;10952;50.836;4.348;2024-03-08T09:20:00;34.80;;;16.40;;
21581;SDS011;10952;50.836;4.348;2024-03-08T09:22:28;31.93;;;17.60;;
21581;SDS011;10952;50.836;4.348;2024-03-08T09:24:55;31.23;;;16.70;;
21581;SDS011;10952;50.836;4.348;2024-03-08T09:27:22;29.17;;;16.07;;
21581;SDS011;10952;50.836;4.348;2024-03-08T09:29:48;35.07;;;17.33;;
21581;SDS011;10952;50.836;4.348;2024-03-08T09:32:14;32.23;;;16.73;;
21581;SDS011;10952;50.836;4.348;2024-03-08T09:34:47;39.47;;;16.93;;
21581;SDS011;10952;50.836;4.348;2024-03-08T09:37:34;38.17;;;18.53;;
21581;SDS011;10952;50.836;4.348;2024-03-08T09:40:00;29.93;;;16.80;;
21581;SDS011;10952;50.836;4.348;2024-03-08T09:42:29;35.87;;;16.20;;
21581;SDS011;10952;50.836;4.348;2024-03-08T09:45:02;26.03;;;15.33;;
21581;SDS011;10952;50.836;4.348;2024-03-08T09:47:34;28.43;;;15.83;;
21581;SDS011;10952;50.836;4.348;2024-03-08T09:50:04;38.97;;;16.10;;
21581;SDS011;10952;50.836;4.348;2024-03-08T09:52:36;26.73;;;15.00;;
21581;SDS011;10952;50.836;4.348;2024-03-08T09:55:08;32.63;;;15.57;;
21581;SDS011;10952;50.836;4.348;2024-03-08T09:57:36;30.10;;;15.03;;
21581;SDS011;10952;50.836;4.348;2024-03-08T10:00:07;30.40;;;15.03;;
21581;SDS011;10952;50.836;4.348;2024-03-08T10:02:45;30.47;;;16.17;;
21581;SDS011;10952;50.836;4.348;2024-03-08T10:05:12;29.70;;;15.10;;
21581;SDS011;10952;50.836;4.348;2024-03-08T10:07:39;30.40;;;15.50;;
21581;SDS011;10952;50.836;4.348;2024-03-08T10:10:07;30.67;;;15.10;;
21581;SDS011;10952;50.836;4.348;2024-03-08T10:12:35;25.70;;;14.27;;
21581;SDS011;10952;50.836;4.348;2024-03-08T10:15:01;27.73;;;15.63;;
21581;SDS011;10952;50.836;4.348;2024-03-08T10:17:27;31.10;;;15.80;;
21581;SDS011;10952;50.836;4.348;2024-03-08T10:19:57;28.03;;;15.43;;
21581;SDS011;10952;50.836;4.348;2024-03-08T10:22:25;29.73;;;14.80;;
21581;SDS011;10952;50.836;4.348;2024-03-08T10:24:51;29.10;;;15.00;;
21581;SDS011;10952;50.836;4.348;2024-03-08T10:27:18;26.83;;;15.30;;
21581;SDS011;10952;50.836;4.348;2024-03-08T10:29:51;25.27;;;14.47;;
21581;SDS011;10952;50.836;4.348;2024-03-08T10:32:19;26.93;;;14.80;;
21581;SDS011;10952;50.836;4.348;2024-03-08T10:34:46;26.33;;;14.30;;
21581;SDS011;10952;50.836;4.348;2024-03-08T10:37:15;28.17;;;15.30;;
21581;SDS011;10952;50.836;4.348;2024-03-08T10:40:09;35.40;;;15.53;;
21581;SDS011;10952;50.836;4.348;2024-03-08T10:42:47;32.13;;;15.00;;
21581;SDS011;10952;50.836;4.348;2024-03-08T10:50:47;30.03;;;16.23;;
21581;SDS011;10952;50.836;4.348;2024-03-08T10:53:17;27.33;;;14.77;;
21581;SDS011;10952;50.836;4.348;2024-03-08T10:55:49;27.00;;;14.97;;
21581;SDS011;10952;50.836;4.348;2024-03-08T10:58:18;27.67;;;15.23;;
21581;SDS011;10952;50.836;4.348;2024-03-08T11:00:48;28.00;;;16.00;;
21581;SDS011;10952;50.836;4.348;2024-03-08T11:14:50;23.07;;;14.97;;
21581;SDS011;10952;50.836;4.348;2024-03-08T11:18:00;21.43;;;13.40;;
21581;SDS011;10952;50.836;4.348;2024-03-08T11:20:15;23.83;;;15.67;;
21581;SDS011;10952;50.836;4.348;2024-03-08T11:22:52;29.07;;;17.10;;
21581;SDS011;10952;50.836;4.348;2024-03-08T11:25:38;24.10;;;15.40;;
21581;SDS011;10952;50.836;4.348;2024-03-08T11:28:21;23.87;;;15.00;;
21581;SDS011;10952;50.836;4.348;2024-03-08T11:33:28;24.73;;;15.27;;
21581;SDS011;10952;50.836;4.348;2024-03-08T11:38:52;22.27;;;14.33;;
21581;SDS011;10952;50.836;4.348;2024-03-08T11:41:23;25.83;;;14.97;;
21581;SDS011;10952;50.836;4.348;2024-03-08T11:44:03;22.30;;;15.10;;
21581;SDS011;10952;50.836;4.348;2024-03-08T11:46:30;19.20;;;14.60;;
21581;SDS011;10952;50.836;4.348;2024-03-08T11:48:59;25.50;;;15.48;;
21581;SDS011;10952;50.836;4.348;2024-03-08T11:51:29;22.08;;;14.70;;
21581;SDS011;10952;50.836;4.348;2024-03-08T11:53:56;21.65;;;14.63;;
21581;SDS011;10952;50.836;4.348;2024-03-08T11:56:22;33.08;;;15.20;;
21581;SDS011;10952;50.836;4.348;2024-03-08T11:58:54;27.03;;;14.93;;
21581;SDS011;10952;50.836;4.348;2024-03-08T12:01:22;20.98;;;14.70;;
21581;SDS011;10952;50.836;4.348;2024-03-08T12:03:56;26.63;;;15.17;;
21581;SDS011;10952;50.836;4.348;2024-03-08T12:06:25;25.67;;;15.20;;
21581;SDS011;10952;50.836;4.348;2024-03-08T12:08:52;25.83;;;14.60;;
21581;SDS011;10952;50.836;4.348;2024-03-08T12:11:18;21.33;;;14.33;;
21581;SDS011;10952;50.836;4.348;2024-03-08T12:13:49;20.97;;;14.57;;
21581;SDS011;10952;50.836;4.348;2024-03-08T12:16:19;22.40;;;14.20;;
21581;SDS011;10952;50.836;4.348;2024-03-08T12:18:48;25.40;;;14.93;;
21581;SDS011;10952;50.836;4.348;2024-03-08T12:23:48;27.67;;;14.90;;
21581;SDS011;10952;50.836;4.348;2024-03-08T12:26:38;27.07;;;14.40;;
21581;SDS011;10952;50.836;4.348;2024-03-08T12:31:51;27.13;;;14.82;;
21581;SDS011;10952;50.836;4.348;2024-03-08T12:34:21;26.23;;;15.45;;
21581;SDS011;10952;50.836;4.348;2024-03-08T12:36:47;23.67;;;16.05;;
21581;SDS011;10952;50.836;4.348;2024-03-08T12:39:17;25.48;;;14.85;;
21581;SDS011;10952;50.836;4.348;2024-03-08T12:41:53;22.33;;;14.68;;
21581;SDS011;10952;50.836;4.348;2024-03-08T12:44:22;23.63;;;14.18;;
21581;SDS011;10952;50.836;4.348;2024-03-08T12:46:48;27.55;;;13.98;;
21581;SDS011;10952;50.836;4.348;2024-03-08T12:49:15;25.67;;;15.13;;
21581;SDS011;10952;50.836;4.348;2024-03-08T12:51:46;21.77;;;14.07;;
21581;SDS011;10952;50.836;4.348;2024-03-08T12:54:12;20.67;;;14.82;;
21581;SDS011;10952;50.836;4.348;2024-03-08T12:56:42;25.08;;;14.02;;
21581;SDS011;10952;50.836;4.348;2024-03-08T12:59:09;26.40;;;14.70;;
21581;SDS011;10952;50.836;4.348;2024-03-08T13:01:35;22.40;;;13.48;;
21581;SDS011;10952;50.836;4.348;2024-03-08T13:04:05;21.17;;;13.48;;
21581;SDS011;10952;50.836;4.348;2024-03-08T13:06:31;20.40;;;14.00;;
21581;SDS011;10952;50.836;4.348;2024-03-08T13:08:59;21.55;;;14.48;;
21581;SDS011;10952;50.836;4.348;2024-03-08T13:11:32;22.63;;;14.03;;
21581;SDS011;10952;50.836;4.348;2024-03-08T13:14:02;26.63;;;12.80;;
21581;SDS011;10952;50.836;4.348;2024-03-08T13:16:30;23.77;;;14.40;;
21581;SDS011;10952;50.836;4.348;2024-03-08T13:18:57;21.43;;;14.63;;
21581;SDS011;10952;50.836;4.348;2024-03-08T13:21:23;24.53;;;14.30;;
21581;SDS011;10952;50.836;4.348;2024-03-08T13:23:50;21.83;;;13.70;;
21581;SDS011;10952;50.836;4.348;2024-03-08T13:26:18;23.73;;;14.07;;
21581;SDS011;10952;50.836;4.348;2024-03-08T13:28:45;20.50;;;13.47;;
21581;SDS011;10952;50.836;4.348;2024-03-08T13:31:12;23.07;;;14.97;;
21581;SDS011;10952;50.836;4.348;2024-03-08T13:33:40;27.20;;;16.37;;
21581;SDS011;10952;50.836;4.348;2024-03-08T13:36:07;23.43;;;14.63;;
21581;SDS011;10952;50.836;4.348;2024-03-08T13:38:51;26.13;;;13.83;;
21581;SDS011;10952;50.836;4.348;2024-03-08T13:41:17;23.87;;;13.07;;
21581;SDS011;10952;50.836;4.348;2024-03-08T13:43:45;22.07;;;13.53;;
21581;SDS011;10952;50.836;4.348;2024-03-08T13:46:15;21.13;;;12.93;;
21581;SDS011;10952;50.836;4.348;2024-03-08T13:48:41;24.93;;;13.53;;
21581;SDS011;10952;50.836;4.348;2024-03-08T13:51:09;32.23;;;12.97;;
21581;SDS011;10952;50.836;4.348;2024-03-08T13:53:40;19.77;;;12.27;;
21581;SDS011;10952;50.836;4.348;2024-03-08T13:56:08;27.53;;;13.73;;
21581;SDS011;10952;50.836;4.348;2024-03-08T13:58:37;20.83;;;12.93;;
21581;SDS011;10952;50.836;4.348;2024-03-08T14:01:05;28.23;;;12.77;;
21581;SDS011;10952;50.836;4.348;2024-03-08T14:03:36;25.13;;;13.70;;
21581;SDS011;10952;50.836;4.348;2024-03-08T14:06:06;20.13;;;12.03;;
21581;SDS011;10952;50.836;4.348;2024-03-08T14:08:32;21.70;;;12.63;;
21581;SDS011;10952;50.836;4.348;2024-03-08T14:10:58;23.63;;;13.40;;
21581;SDS011;10952;50.836;4.348;2024-03-08T14:13:24;23.40;;;12.70;;
21581;SDS011;10952;50.836;4.348;2024-03-08T14:15:51;22.63;;;12.40;;
21581;SDS011;10952;50.836;4.348;2024-03-08T14:18:17;23.43;;;13.30;;
21581;SDS011;10952;50.836;4.348;2024-03-08T14:20:43;22.90;;;13.33;;
21581;SDS011;10952;50.836;4.348;2024-03-08T14:23:09;21.17;;;12.07;;
21581;SDS011;10952;50.836;4.348;2024-03-08T14:25:35;26.30;;;13.10;;
21581;SDS011;10952;50.836;4.348;2024-03-08T14:28:02;28.23;;;14.07;;
21581;SDS011;10952;50.836;4.348;2024-03-08T14:30:32;20.07;;;11.90;;
21581;SDS011;10952;50.836;4.348;2024-03-08T14:33:03;22.73;;;13.20;;
21581;SDS011;10952;50.836;4.348;2024-03-08T14:35:38;28.03;;;12.70;;
21581;SDS011;10952;50.836;4.348;2024-03-08T14:38:06;20.40;;;12.17;;
21581;SDS011;10952;50.836;4.348;2024-03-08T14:40:39;20.83;;;12.77;;
21581;SDS011;10952;50.836;4.348;2024-03-08T14:43:05;22.60;;;14.00;;
21581;SDS011;10952;50.836;4.348;2024-03-08T14:45:31;21.43;;;12.57;;
21581;SDS011;10952;50.836;4.348;2024-03-08T14:47:57;22.00;;;12.37;;
21581;SDS011;10952;50.836;4.348;2024-03-08T14:50:24;24.27;;;12.33;;
21581;SDS011;10952;50.836;4.348;2024-03-08T14:52:50;25.20;;;13.00;;
21581;SDS011;10952;50.836;4.348;2024-03-08T14:55:20;23.63;;;13.13;;